createdAt,value
2023-05-08T00:00:01.259Z,1031.60
2023-05-08T00:01:01.229Z,1031.58
2023-05-08T00:02:01.231Z,1031.60
2023-05-08T00:03:01.450Z,1031.59
2023-05-08T00:04:01.375Z,1031.62
2023-05-08T00:05:01.342Z,1031.60
2023-05-08T00:06:01.242Z,1031.63
2023-05-08T00:07:01.242Z,1031.60
2023-05-08T00:08:01.251Z,1031.63
2023-05-08T00:09:01.242Z,1031.60
2023-05-08T00:10:01.244Z,1031.61
2023-05-08T00:11:01.246Z,1031.61
2023-05-08T00:12:01.247Z,1031.61
2023-05-08T00:13:01.273Z,1031.63
2023-05-08T00:14:01.252Z,1031.59
2023-05-08T00:15:01.256Z,1031.63
2023-05-08T00:16:01.293Z,1031.61
2023-05-08T00:17:01.339Z,1031.62
2023-05-08T00:18:01.308Z,1031.64
2023-05-08T00:19:01.269Z,1031.62
2023-05-08T00:20:01.262Z,1031.63
2023-05-08T00:21:01.264Z,1031.58
2023-05-08T00:22:01.274Z,1031.60
2023-05-08T00:23:01.275Z,1031.63
2023-05-08T00:24:01.287Z,1031.63
2023-05-08T00:25:01.271Z,1031.64
2023-05-08T00:26:01.274Z,1031.63
2023-05-08T00:27:01.280Z,1031.66
2023-05-08T00:28:01.278Z,1031.63
2023-05-08T00:29:01.279Z,1031.62
2023-05-08T00:30:01.280Z,1031.62
2023-05-08T00:31:01.596Z,1031.67
2023-05-08T00:32:01.348Z,1031.67
2023-05-08T00:33:01.339Z,1031.64
2023-05-08T00:34:01.289Z,1031.67
2023-05-08T00:35:01.293Z,1031.66
2023-05-08T00:36:01.291Z,1031.67
2023-05-08T00:37:01.303Z,1031.68
2023-05-08T00:38:01.325Z,1031.67
2023-05-08T00:39:01.307Z,1031.67
2023-05-08T00:40:01.321Z,1031.66
2023-05-08T00:41:01.306Z,1031.72
2023-05-08T00:42:01.303Z,1031.72
2023-05-08T00:43:01.608Z,1031.72
2023-05-08T00:44:01.308Z,1031.71
2023-05-08T00:45:01.312Z,1031.69
2023-05-08T00:46:01.420Z,1031.68
2023-05-08T00:47:01.315Z,1031.67
2023-05-08T00:48:01.360Z,1031.72
2023-05-08T00:49:01.314Z,1031.72
2023-05-08T00:50:01.323Z,1031.76
2023-05-08T00:51:01.324Z,1031.75
2023-05-08T00:52:01.319Z,1031.75
2023-05-08T00:53:01.350Z,1031.76
2023-05-08T00:54:01.353Z,1031.76
2023-05-08T00:55:01.354Z,1031.76
2023-05-08T00:56:01.329Z,1031.80
2023-05-08T00:57:01.335Z,1031.81
2023-05-08T00:58:01.375Z,1031.84
2023-05-08T00:59:01.334Z,1031.83
2023-05-08T01:00:01.339Z,1031.85
2023-05-08T01:01:01.368Z,1031.81
2023-05-08T01:02:01.579Z,1031.84
2023-05-08T01:03:01.420Z,1031.86
2023-05-08T01:04:01.394Z,1031.87
2023-05-08T01:05:01.351Z,1031.90
2023-05-08T01:06:01.354Z,1031.87
2023-05-08T01:07:01.360Z,1031.92
2023-05-08T01:08:01.363Z,1031.90
2023-05-08T01:09:01.355Z,1031.95
2023-05-08T01:10:01.357Z,1031.90
2023-05-08T01:11:01.364Z,1031.94
2023-05-08T01:12:01.362Z,1031.90
2023-05-08T01:13:01.447Z,1031.95
2023-05-08T01:14:01.363Z,1031.91
2023-05-08T01:15:01.390Z,1031.94
2023-05-08T01:16:01.441Z,1031.93
2023-05-08T01:17:01.380Z,1031.95
2023-05-08T01:18:01.402Z,1031.94
2023-05-08T01:19:01.376Z,1031.96
2023-05-08T01:20:01.410Z,1032.00
2023-05-08T01:21:01.381Z,1031.96
2023-05-08T01:22:01.384Z,1032.02
2023-05-08T01:23:01.402Z,1031.98
2023-05-08T01:24:01.383Z,1031.99
2023-05-08T01:25:01.396Z,1031.98
2023-05-08T01:26:01.392Z,1031.96
2023-05-08T01:27:01.401Z,1031.99
2023-05-08T01:28:01.397Z,1032.02
2023-05-08T01:29:01.407Z,1032.05
2023-05-08T01:30:01.398Z,1032.04
2023-05-08T01:31:01.396Z,1032.05
2023-05-08T01:32:01.406Z,1032.08
2023-05-08T01:33:01.458Z,1032.06
2023-05-08T01:34:01.468Z,1032.04
2023-05-08T01:35:01.403Z,1032.06
2023-05-08T01:36:01.443Z,1032.09
2023-05-08T01:37:01.415Z,1032.08
2023-05-08T01:38:01.417Z,1032.09
2023-05-08T01:39:01.413Z,1032.06
2023-05-08T01:40:01.416Z,1032.07
2023-05-08T01:41:01.429Z,1032.09
2023-05-08T01:42:01.420Z,1032.11
2023-05-08T01:43:01.421Z,1032.10
2023-05-08T01:44:01.426Z,1032.11
2023-05-08T01:45:01.436Z,1032.08
2023-05-08T01:46:01.428Z,1032.09
2023-05-08T01:47:01.502Z,1032.06
2023-05-08T01:48:01.492Z,1032.01
2023-05-08T01:49:01.445Z,1032.03
2023-05-08T01:50:01.451Z,1032.07
2023-05-08T01:51:01.455Z,1032.04
2023-05-08T01:52:01.470Z,1032.06
2023-05-08T01:53:01.438Z,1032.05
2023-05-08T01:54:01.444Z,1032.06
2023-05-08T01:55:01.447Z,1032.09
2023-05-08T01:56:01.452Z,1032.08
2023-05-08T01:57:01.450Z,1032.08
2023-05-08T01:58:01.446Z,1032.12
2023-05-08T01:59:01.501Z,1032.08
2023-05-08T02:00:01.459Z,1032.09
2023-05-08T02:01:01.484Z,1032.10
2023-05-08T02:02:01.481Z,1032.10
2023-05-08T02:03:01.543Z,1032.09
2023-05-08T02:04:01.489Z,1032.07
2023-05-08T02:05:01.472Z,1032.09
2023-05-08T02:06:01.474Z,1032.03
2023-05-08T02:07:01.469Z,1032.08
2023-05-08T02:08:01.499Z,1032.05
2023-05-08T02:09:01.484Z,1032.05
2023-05-08T02:10:01.474Z,1032.06
2023-05-08T02:11:01.490Z,1032.03
2023-05-08T02:12:01.487Z,1032.04
2023-05-08T02:13:01.509Z,1032.01
2023-05-08T02:14:01.478Z,1032.04
2023-05-08T02:15:01.509Z,1032.01
2023-05-08T02:16:01.482Z,1032.02
2023-05-08T02:17:01.637Z,1032.00
2023-05-08T02:18:01.531Z,1032.00
2023-05-08T02:19:01.489Z,1032.03
2023-05-08T02:20:01.491Z,1032.06
2023-05-08T02:21:01.496Z,1032.00
2023-05-08T02:22:01.491Z,1032.03
2023-05-08T02:23:01.503Z,1032.02
2023-05-08T02:24:01.534Z,1031.95
2023-05-08T02:25:01.497Z,1031.98
2023-05-08T02:26:01.496Z,1032.01
2023-05-08T02:27:01.501Z,1031.99
2023-05-08T02:28:01.503Z,1032.00
2023-05-08T02:29:01.502Z,1031.98
2023-05-08T02:30:01.519Z,1032.00
2023-05-08T02:31:01.528Z,1032.00
2023-05-08T02:32:01.525Z,1032.04
2023-05-08T02:33:01.524Z,1032.01
2023-05-08T02:34:01.511Z,1032.03
2023-05-08T02:35:03.517Z,1031.99
2023-05-08T02:36:01.520Z,1032.01
2023-05-08T02:37:01.519Z,1032.02
2023-05-08T02:38:01.520Z,1031.98
2023-05-08T02:39:01.523Z,1032.04
2023-05-08T02:40:01.568Z,1032.03
2023-05-08T02:41:01.548Z,1032.04
2023-05-08T02:42:01.532Z,1032.06
2023-05-08T02:43:01.544Z,1032.07
2023-05-08T02:44:01.529Z,1032.05
2023-05-08T02:45:01.537Z,1032.05
2023-05-08T02:46:01.572Z,1032.03
2023-05-08T02:47:01.547Z,1032.06
2023-05-08T02:48:01.562Z,1032.05
2023-05-08T02:49:01.542Z,1032.04
2023-05-08T02:50:01.539Z,1032.03
2023-05-08T02:51:01.536Z,1032.07
2023-05-08T02:52:01.548Z,1032.06
2023-05-08T02:53:01.542Z,1032.08
2023-05-08T02:54:01.554Z,1032.06
2023-05-08T02:55:01.581Z,1032.03
2023-05-08T02:56:01.578Z,1032.09
2023-05-08T02:57:01.555Z,1032.06
2023-05-08T02:58:01.556Z,1032.07
2023-05-08T02:59:01.561Z,1032.06
2023-05-08T03:00:01.577Z,1032.09
2023-05-08T03:01:01.589Z,1032.02
2023-05-08T03:02:01.571Z,1032.02
2023-05-08T03:03:01.654Z,1032.05
2023-05-08T03:04:01.565Z,1031.98
2023-05-08T03:05:01.562Z,1032.04
2023-05-08T03:06:01.570Z,1032.01
2023-05-08T03:07:01.584Z,1032.00
2023-05-08T03:08:01.567Z,1032.02
2023-05-08T03:09:01.577Z,1032.01
2023-05-08T03:10:01.576Z,1031.98
2023-05-08T03:11:01.588Z,1031.97
2023-05-08T03:12:01.603Z,1031.98
2023-05-08T03:13:01.614Z,1031.97
2023-05-08T03:14:01.577Z,1032.01
2023-05-08T03:15:01.582Z,1031.96
2023-05-08T03:16:01.620Z,1031.99
2023-05-08T03:17:01.587Z,1032.01
2023-05-08T03:18:01.648Z,1032.00
2023-05-08T03:19:01.597Z,1031.97
2023-05-08T03:20:01.596Z,1032.05
2023-05-08T03:21:01.595Z,1032.02
2023-05-08T03:22:01.617Z,1032.00
2023-05-08T03:23:01.600Z,1032.00
2023-05-08T03:24:01.598Z,1032.00
2023-05-08T03:25:01.597Z,1031.99
2023-05-08T03:26:01.594Z,1031.98
2023-05-08T03:27:01.604Z,1031.95
2023-05-08T03:28:01.634Z,1031.99
2023-05-08T03:29:01.611Z,1032.00
2023-05-08T03:30:01.604Z,1031.99
2023-05-08T03:31:01.622Z,1031.99
2023-05-08T03:32:01.611Z,1031.99
2023-05-08T03:33:01.642Z,1032.03
2023-05-08T03:34:01.613Z,1032.00
2023-05-08T03:35:01.622Z,1031.99
2023-05-08T03:36:01.640Z,1031.98
2023-05-08T03:37:01.625Z,1031.99
2023-05-08T03:38:01.620Z,1032.02
2023-05-08T03:39:01.620Z,1032.02
2023-05-08T03:40:01.624Z,1031.98
2023-05-08T03:41:01.637Z,1032.03
2023-05-08T03:42:01.639Z,1032.01
2023-05-08T03:43:01.639Z,1031.99
2023-05-08T03:44:01.765Z,1031.96
2023-05-08T03:45:01.633Z,1031.99
2023-05-08T03:46:01.632Z,1032.00
2023-05-08T03:47:01.679Z,1032.00
2023-05-08T03:48:01.684Z,1032.01
2023-05-08T03:49:01.638Z,1032.02
2023-05-08T03:50:01.650Z,1032.00
2023-05-08T03:51:01.704Z,1032.00
2023-05-08T03:52:01.649Z,1032.02
2023-05-08T03:53:01.658Z,1032.02
2023-05-08T03:54:01.688Z,1032.00
2023-05-08T03:55:01.727Z,1032.00
2023-05-08T03:56:01.666Z,1031.97
2023-05-08T03:57:01.657Z,1031.96
2023-05-08T03:58:01.661Z,1031.98
2023-05-08T03:59:01.665Z,1032.01
2023-05-08T04:00:01.694Z,1032.00
2023-05-08T04:01:01.678Z,1031.97
2023-05-08T04:02:01.694Z,1031.97
2023-05-08T04:03:01.800Z,1031.95
2023-05-08T04:04:01.733Z,1031.94
2023-05-08T04:05:01.669Z,1031.98
2023-05-08T04:06:01.680Z,1031.98
2023-05-08T04:07:01.676Z,1031.96
2023-05-08T04:08:01.685Z,1031.96
2023-05-08T04:09:01.682Z,1031.95
2023-05-08T04:10:01.684Z,1031.96
2023-05-08T04:11:01.834Z,1031.96
2023-05-08T04:12:01.688Z,1031.93
2023-05-08T04:13:01.742Z,1031.94
2023-05-08T04:14:01.692Z,1031.95
2023-05-08T04:15:01.709Z,1031.99
2023-05-08T04:16:01.717Z,1031.94
2023-05-08T04:17:01.773Z,1031.92
2023-05-08T04:18:01.724Z,1031.93
2023-05-08T04:19:01.703Z,1031.94
2023-05-08T04:20:01.712Z,1031.91
2023-05-08T04:21:01.708Z,1031.93
2023-05-08T04:22:01.702Z,1031.93
2023-05-08T04:23:01.724Z,1031.94
2023-05-08T04:24:01.713Z,1031.93
2023-05-08T04:25:01.715Z,1031.92
2023-05-08T04:26:01.718Z,1032.01
2023-05-08T04:27:01.721Z,1031.95
2023-05-08T04:28:01.736Z,1031.95
2023-05-08T04:29:01.717Z,1031.98
2023-05-08T04:30:01.740Z,1031.97
2023-05-08T04:31:01.733Z,1031.94
2023-05-08T04:32:01.790Z,1031.95
2023-05-08T04:33:01.802Z,1031.96
2023-05-08T04:34:01.727Z,1031.91
2023-05-08T04:35:01.729Z,1031.93
2023-05-08T04:36:01.731Z,1031.93
2023-05-08T04:37:01.734Z,1031.91
2023-05-08T04:38:01.736Z,1031.94
2023-05-08T04:39:01.751Z,1031.97
2023-05-08T04:40:01.742Z,1031.90
2023-05-08T04:41:01.774Z,1031.92
2023-05-08T04:42:01.752Z,1031.93
2023-05-08T04:43:01.756Z,1031.93
2023-05-08T04:44:01.744Z,1031.90
2023-05-08T04:45:01.803Z,1031.92
2023-05-08T04:46:01.808Z,1031.94
2023-05-08T04:47:01.781Z,1031.91
2023-05-08T04:48:01.819Z,1031.93
2023-05-08T04:49:01.762Z,1031.94
2023-05-08T04:50:02.765Z,1031.91
2023-05-08T04:51:01.764Z,1031.93
2023-05-08T04:52:01.779Z,1031.95
2023-05-08T04:53:01.769Z,1031.94
2023-05-08T04:54:01.763Z,1031.94
2023-05-08T04:55:01.793Z,1031.97
2023-05-08T04:56:01.767Z,1031.98
2023-05-08T04:57:01.789Z,1031.98
2023-05-08T04:58:01.779Z,1031.96
2023-05-08T04:59:01.783Z,1031.96
2023-05-08T05:00:01.781Z,1031.97
2023-05-08T05:01:01.860Z,1031.95
2023-05-08T05:02:01.963Z,1031.99
2023-05-08T05:03:01.856Z,1031.98
2023-05-08T05:04:01.954Z,1031.96
2023-05-08T05:05:01.818Z,1031.98
2023-05-08T05:06:01.808Z,1031.93
2023-05-08T05:07:01.788Z,1031.94
2023-05-08T05:08:01.794Z,1031.93
2023-05-08T05:09:01.789Z,1031.94
2023-05-08T05:10:01.795Z,1031.92
2023-05-08T05:11:01.789Z,1031.91
2023-05-08T05:12:01.805Z,1031.91
2023-05-08T05:13:01.867Z,1031.94
2023-05-08T05:14:01.805Z,1031.90
2023-05-08T05:15:01.819Z,1031.88
2023-05-08T05:16:01.867Z,1031.89
2023-05-08T05:17:01.800Z,1031.94
2023-05-08T05:18:01.854Z,1031.91
2023-05-08T05:19:01.814Z,1031.94
2023-05-08T05:20:01.965Z,1031.91
2023-05-08T05:21:01.809Z,1031.88
2023-05-08T05:22:01.812Z,1031.93
2023-05-08T05:23:01.819Z,1031.92
2023-05-08T05:24:01.822Z,1031.95
2023-05-08T05:25:01.820Z,1031.93
2023-05-08T05:26:01.821Z,1031.94
2023-05-08T05:27:01.823Z,1031.93
2023-05-08T05:28:01.819Z,1031.91
2023-05-08T05:29:01.836Z,1031.86
2023-05-08T05:30:01.833Z,1031.89
2023-05-08T05:31:01.880Z,1031.90
2023-05-08T05:32:01.863Z,1031.89
2023-05-08T05:33:01.858Z,1031.91
2023-05-08T05:34:01.831Z,1031.87
2023-05-08T05:35:01.845Z,1031.86
2023-05-08T05:36:01.875Z,1031.86
2023-05-08T05:37:01.852Z,1031.83
2023-05-08T05:38:01.845Z,1031.87
2023-05-08T05:39:01.844Z,1031.86
2023-05-08T05:40:01.875Z,1031.90
2023-05-08T05:41:01.845Z,1031.87
2023-05-08T05:42:01.844Z,1031.86
2023-05-08T05:43:01.865Z,1031.87
2023-05-08T05:44:01.851Z,1031.84
2023-05-08T05:45:01.869Z,1031.86
2023-05-08T05:46:01.851Z,1031.89
2023-05-08T05:47:01.859Z,1031.87
2023-05-08T05:48:01.873Z,1031.89
2023-05-08T05:49:01.875Z,1031.87
2023-05-08T05:50:01.860Z,1031.91
2023-05-08T05:51:01.866Z,1031.89
2023-05-08T05:52:01.900Z,1031.86
2023-05-08T05:53:01.916Z,1031.91
2023-05-08T05:54:01.874Z,1031.88
2023-05-08T05:55:01.879Z,1031.89
2023-05-08T05:56:01.866Z,1031.92
2023-05-08T05:57:01.880Z,1031.93
2023-05-08T05:58:01.879Z,1031.93
2023-05-08T05:59:01.882Z,1031.92
2023-05-08T06:00:01.908Z,1031.95
2023-05-08T06:01:01.890Z,1031.90
2023-05-08T06:02:01.930Z,1031.95
2023-05-08T06:03:02.065Z,1031.95
2023-05-08T06:04:01.970Z,1031.94
2023-05-08T06:05:01.886Z,1031.95
2023-05-08T06:06:01.903Z,1031.95
2023-05-08T06:07:01.889Z,1031.96
2023-05-08T06:08:02.069Z,1031.94
2023-05-08T06:09:01.892Z,1031.95
2023-05-08T06:10:01.890Z,1031.97
2023-05-08T06:11:02.010Z,1031.98
2023-05-08T06:12:01.899Z,1031.93
2023-05-08T06:13:01.926Z,1031.95
2023-05-08T06:14:01.907Z,1031.93
2023-05-08T06:15:01.903Z,1032.00
2023-05-08T06:16:01.965Z,1031.99
2023-05-08T06:17:01.998Z,1031.98
2023-05-08T06:18:01.925Z,1031.96
2023-05-08T06:19:01.910Z,1032.00
2023-05-08T06:20:01.939Z,1032.00
2023-05-08T06:21:01.930Z,1031.95
2023-05-08T06:22:01.916Z,1032.00
2023-05-08T06:23:01.923Z,1032.00
2023-05-08T06:24:02.106Z,1032.02
2023-05-08T06:25:01.924Z,1031.97
2023-05-08T06:26:01.932Z,1031.99
2023-05-08T06:27:01.923Z,1031.94
2023-05-08T06:28:01.924Z,1031.91
2023-05-08T06:29:01.934Z,1031.93
2023-05-08T06:30:01.941Z,1031.92
2023-05-08T06:31:02.012Z,1031.95
2023-05-08T06:32:01.937Z,1031.97
2023-05-08T06:33:01.981Z,1031.95
2023-05-08T06:34:01.944Z,1031.91
2023-05-08T06:35:01.983Z,1031.93
2023-05-08T06:36:01.948Z,1031.88
2023-05-08T06:37:01.941Z,1031.89
2023-05-08T06:38:01.948Z,1031.88
2023-05-08T06:39:01.949Z,1031.94
2023-05-08T06:40:11.572Z,1031.93
2023-05-08T06:41:01.956Z,1031.94
2023-05-08T06:42:01.963Z,1031.89
2023-05-08T06:43:01.959Z,1031.85
2023-05-08T06:44:01.964Z,1031.86
2023-05-08T06:45:01.967Z,1031.87
2023-05-08T06:46:02.653Z,1031.87
2023-05-08T06:47:01.963Z,1031.85
2023-05-08T06:48:02.045Z,1031.84
2023-05-08T06:49:01.985Z,1031.78
2023-05-08T06:50:01.965Z,1031.78
2023-05-08T06:51:01.969Z,1031.81
2023-05-08T06:52:01.977Z,1031.76
2023-05-08T06:53:02.006Z,1031.79
2023-05-08T06:54:01.979Z,1031.77
2023-05-08T06:55:01.979Z,1031.76
2023-05-08T06:56:02.023Z,1031.75
2023-05-08T06:57:01.987Z,1031.78
2023-05-08T06:58:01.989Z,1031.85
2023-05-08T06:59:08.407Z,1031.81
2023-05-08T07:00:02.003Z,1031.75
2023-05-08T07:01:01.998Z,1031.79
2023-05-08T07:02:02.074Z,1031.78
2023-05-08T07:03:02.050Z,1031.76
2023-05-08T07:04:01.995Z,1031.78
2023-05-08T07:05:02.070Z,1031.78
2023-05-08T07:06:01.998Z,1031.80
2023-05-08T07:07:02.001Z,1031.78
2023-05-08T07:08:01.998Z,1031.77
2023-05-08T07:09:02.008Z,1031.74
2023-05-08T07:10:02.003Z,1031.76
2023-05-08T07:11:02.011Z,1031.78
2023-05-08T07:12:02.053Z,1031.80
2023-05-08T07:13:02.058Z,1031.85
2023-05-08T07:14:02.018Z,1031.82
2023-05-08T07:15:13.894Z,1031.79
2023-05-08T07:16:02.099Z,1031.73
2023-05-08T07:17:02.026Z,1031.79
2023-05-08T07:18:02.070Z,1031.77
2023-05-08T07:19:02.045Z,1031.75
2023-05-08T07:20:02.063Z,1031.80
2023-05-08T07:21:02.029Z,1031.73
2023-05-08T07:22:02.093Z,1031.75
2023-05-08T07:23:02.042Z,1031.76
2023-05-08T07:24:02.037Z,1031.76
2023-05-08T07:25:02.041Z,1031.76
2023-05-08T07:26:02.039Z,1031.75
2023-05-08T07:27:02.053Z,1031.74
2023-05-08T07:28:02.133Z,1031.72
2023-05-08T07:29:02.059Z,1031.68
2023-05-08T07:30:02.049Z,1031.67
2023-05-08T07:31:02.048Z,1031.66
2023-05-08T07:32:02.165Z,1031.65
2023-05-08T07:33:02.086Z,1031.59
2023-05-08T07:34:02.052Z,1031.66
2023-05-08T07:35:02.083Z,1031.63
2023-05-08T07:36:02.057Z,1031.63
2023-05-08T07:37:02.084Z,1031.60
2023-05-08T07:38:02.063Z,1031.62
2023-05-08T07:39:02.069Z,1031.58
2023-05-08T07:40:02.099Z,1031.61
2023-05-08T07:41:02.439Z,1031.63
2023-05-08T07:42:02.080Z,1031.62
2023-05-08T07:43:02.077Z,1031.62
2023-05-08T07:44:02.162Z,1031.62
2023-05-08T07:45:02.133Z,1031.61
2023-05-08T07:46:02.069Z,1031.59
2023-05-08T07:47:02.122Z,1031.63
2023-05-08T07:48:02.128Z,1031.57
2023-05-08T07:49:02.094Z,1031.58
2023-05-08T07:50:02.110Z,1031.57
2023-05-08T07:51:02.091Z,1031.59
2023-05-08T07:52:02.082Z,1031.54
2023-05-08T07:53:02.084Z,1031.59
2023-05-08T07:54:02.089Z,1031.56
2023-05-08T07:55:02.089Z,1031.55
2023-05-08T07:56:02.091Z,1031.54
2023-05-08T07:57:02.110Z,1031.57
2023-05-08T07:58:02.108Z,1031.59
2023-05-08T07:59:02.095Z,1031.60
2023-05-08T08:00:02.311Z,1031.58
2023-05-08T08:01:02.144Z,1031.61
2023-05-08T08:02:02.163Z,1031.57
2023-05-08T08:03:02.252Z,1031.55
2023-05-08T08:04:02.193Z,1031.57
2023-05-08T08:05:02.113Z,1031.55
2023-05-08T08:06:02.108Z,1031.54
2023-05-08T08:07:02.154Z,1031.56
2023-05-08T08:08:02.129Z,1031.55
2023-05-08T08:09:02.123Z,1031.55
2023-05-08T08:10:02.130Z,1031.56
2023-05-08T08:11:03.864Z,1031.56
2023-05-08T08:12:02.118Z,1031.55
2023-05-08T08:13:02.357Z,1031.58
2023-05-08T08:14:02.123Z,1031.55
2023-05-08T08:15:02.119Z,1031.60
2023-05-08T08:16:02.153Z,1031.58
2023-05-08T08:17:02.185Z,1031.57
2023-05-08T08:18:02.217Z,1031.61
2023-05-08T08:19:02.138Z,1031.58
2023-05-08T08:20:02.182Z,1031.58
2023-05-08T08:21:02.149Z,1031.58
2023-05-08T08:22:02.153Z,1031.54
2023-05-08T08:23:02.142Z,1031.51
2023-05-08T08:24:02.151Z,1031.57
2023-05-08T08:25:02.153Z,1031.55
2023-05-08T08:26:02.146Z,1031.58
2023-05-08T08:27:02.159Z,1031.58
2023-05-08T08:28:02.186Z,1031.59
2023-05-08T08:29:02.177Z,1031.59
2023-05-08T08:30:15.820Z,1031.56
2023-05-08T08:31:02.230Z,1031.56
2023-05-08T08:32:02.208Z,1031.60
2023-05-08T08:33:02.360Z,1031.54
2023-05-08T08:34:02.209Z,1031.53
2023-05-08T08:35:02.186Z,1031.54
2023-05-08T08:36:02.172Z,1031.56
2023-05-08T08:37:02.175Z,1031.53
2023-05-08T08:38:02.172Z,1031.52
2023-05-08T08:39:02.170Z,1031.55
2023-05-08T08:40:02.185Z,1031.49
2023-05-08T08:41:02.181Z,1031.49
2023-05-08T08:42:02.179Z,1031.50
2023-05-08T08:43:02.284Z,1031.45
2023-05-08T08:44:02.211Z,1031.47
2023-05-08T08:45:02.179Z,1031.54
2023-05-08T08:46:02.204Z,1031.49
2023-05-08T08:47:02.206Z,1031.53
2023-05-08T08:48:02.336Z,1031.44
2023-05-08T08:49:02.207Z,1031.47
2023-05-08T08:50:02.202Z,1031.46
2023-05-08T08:51:02.196Z,1031.47
2023-05-08T08:52:02.201Z,1031.45
2023-05-08T08:53:02.241Z,1031.44
2023-05-08T08:54:02.209Z,1031.45
2023-05-08T08:55:02.244Z,1031.45
2023-05-08T08:56:02.217Z,1031.43
2023-05-08T08:57:02.210Z,1031.41
2023-05-08T08:58:02.214Z,1031.40
2023-05-08T08:59:02.222Z,1031.41
2023-05-08T09:00:02.228Z,1031.40
2023-05-08T09:01:02.223Z,1031.39
2023-05-08T09:02:02.341Z,1031.41
2023-05-08T09:03:02.405Z,1031.38
2023-05-08T09:04:02.357Z,1031.40
2023-05-08T09:05:02.234Z,1031.41
2023-05-08T09:06:02.243Z,1031.42
2023-05-08T09:07:02.227Z,1031.40
2023-05-08T09:08:02.255Z,1031.44
2023-05-08T09:09:02.237Z,1031.43
2023-05-08T09:10:02.272Z,1031.42
2023-05-08T09:11:02.258Z,1031.38
2023-05-08T09:12:02.238Z,1031.36
2023-05-08T09:13:02.329Z,1031.39
2023-05-08T09:14:02.253Z,1031.33
2023-05-08T09:15:02.255Z,1031.35
2023-05-08T09:16:02.352Z,1031.31
2023-05-08T09:17:02.261Z,1031.33
2023-05-08T09:18:02.286Z,1031.32
2023-05-08T09:19:03.366Z,1031.35
2023-05-08T09:20:02.398Z,1031.29
2023-05-08T09:21:02.263Z,1031.28
2023-05-08T09:22:02.269Z,1031.26
2023-05-08T09:23:02.266Z,1031.23
2023-05-08T09:24:02.275Z,1031.23
2023-05-08T09:25:02.269Z,1031.25
2023-05-08T09:26:02.281Z,1031.26
2023-05-08T09:27:02.284Z,1031.29
2023-05-08T09:28:02.279Z,1031.25
2023-05-08T09:29:02.300Z,1031.25
2023-05-08T09:30:02.300Z,1031.21
2023-05-08T09:31:02.307Z,1031.25
2023-05-08T09:32:02.398Z,1031.22
2023-05-08T09:33:02.394Z,1031.25
2023-05-08T09:34:02.287Z,1031.22
2023-05-08T09:35:02.309Z,1031.27
2023-05-08T09:36:02.423Z,1031.24
2023-05-08T09:37:02.303Z,1031.20
2023-05-08T09:38:02.297Z,1031.14
2023-05-08T09:39:02.309Z,1031.18
2023-05-08T09:40:02.321Z,1031.15
2023-05-08T09:41:02.309Z,1031.14
2023-05-08T09:42:02.332Z,1031.10
2023-05-08T09:43:02.320Z,1031.10
2023-05-08T09:44:02.322Z,1031.09
2023-05-08T09:45:02.324Z,1031.13
2023-05-08T09:46:02.456Z,1031.15
2023-05-08T09:47:02.322Z,1031.13
2023-05-08T09:48:02.426Z,1031.10
2023-05-08T09:49:02.333Z,1031.11
2023-05-08T09:50:02.382Z,1031.12
2023-05-08T09:51:02.330Z,1031.09
2023-05-08T09:52:02.537Z,1031.07
2023-05-08T09:53:02.360Z,1031.07
2023-05-08T09:54:02.341Z,1031.09
2023-05-08T09:55:02.369Z,1031.07
2023-05-08T09:56:02.347Z,1031.06
2023-05-08T09:57:02.345Z,1031.10
2023-05-08T09:58:02.345Z,1031.06
2023-05-08T09:59:02.348Z,1031.09
2023-05-08T10:00:02.374Z,1031.11
2023-05-08T10:01:02.391Z,1031.07
2023-05-08T10:02:02.362Z,1031.01
2023-05-08T10:03:02.482Z,1031.04
2023-05-08T10:04:02.482Z,1031.00
2023-05-08T10:05:02.439Z,1030.99
2023-05-08T10:06:02.382Z,1031.00
2023-05-08T10:07:02.373Z,1031.01
2023-05-08T10:08:02.504Z,1031.03
2023-05-08T10:09:02.378Z,1030.96
2023-05-08T10:10:02.391Z,1031.00
2023-05-08T10:11:02.402Z,1030.98
2023-05-08T10:12:02.400Z,1030.94
2023-05-08T10:13:02.419Z,1030.96
2023-05-08T10:14:02.411Z,1030.98
2023-05-08T10:15:02.399Z,1030.97
2023-05-08T10:16:02.414Z,1030.97
2023-05-08T10:17:02.446Z,1030.94
2023-05-08T10:18:02.486Z,1030.92
2023-05-08T10:19:02.459Z,1030.98
2023-05-08T10:20:02.478Z,1030.96
2023-05-08T10:21:02.409Z,1030.95
2023-05-08T10:22:02.413Z,1030.94
2023-05-08T10:23:02.499Z,1030.96
2023-05-08T10:24:02.536Z,1030.94
2023-05-08T10:25:02.416Z,1030.88
2023-05-08T10:26:02.429Z,1030.87
2023-05-08T10:27:07.369Z,1030.90
2023-05-08T10:28:02.444Z,1030.88
2023-05-08T10:29:02.432Z,1030.89
2023-05-08T10:30:02.428Z,1030.86
2023-05-08T10:31:02.494Z,1030.88
2023-05-08T10:32:02.440Z,1030.86
2023-05-08T10:33:02.456Z,1030.86
2023-05-08T10:34:02.459Z,1030.83
2023-05-08T10:35:02.448Z,1030.84
2023-05-08T10:36:02.462Z,1030.81
2023-05-08T10:37:02.449Z,1030.81
2023-05-08T10:38:02.471Z,1030.78
2023-05-08T10:39:02.468Z,1030.77
2023-05-08T10:40:02.587Z,1030.77
2023-05-08T10:41:02.459Z,1030.75
2023-05-08T10:42:02.484Z,1030.70
2023-05-08T10:43:02.471Z,1030.76
2023-05-08T10:44:03.529Z,1030.70
2023-05-08T10:45:02.485Z,1030.75
2023-05-08T10:46:02.502Z,1030.73
2023-05-08T10:47:02.481Z,1030.73
2023-05-08T10:48:02.535Z,1030.70
2023-05-08T10:49:02.492Z,1030.75
2023-05-08T10:50:02.495Z,1030.72
2023-05-08T10:51:02.495Z,1030.74
2023-05-08T10:52:02.494Z,1030.72
2023-05-08T10:53:02.510Z,1030.80
2023-05-08T10:54:02.492Z,1030.78
2023-05-08T10:55:02.507Z,1030.77
2023-05-08T10:56:02.531Z,1030.75
2023-05-08T10:57:02.505Z,1030.77
2023-05-08T10:58:02.510Z,1030.77
2023-05-08T10:59:02.507Z,1030.75
2023-05-08T11:00:02.532Z,1030.73
2023-05-08T11:01:02.516Z,1030.73
2023-05-08T11:02:02.558Z,1030.71
2023-05-08T11:03:02.612Z,1030.70
2023-05-08T11:04:02.611Z,1030.68
2023-05-08T11:05:02.522Z,1030.71
2023-05-08T11:06:02.534Z,1030.72
2023-05-08T11:07:02.528Z,1030.69
2023-05-08T11:08:02.580Z,1030.72
2023-05-08T11:09:02.529Z,1030.69
2023-05-08T11:10:02.534Z,1030.66
2023-05-08T11:11:02.540Z,1030.72
2023-05-08T11:12:02.574Z,1030.72
2023-05-08T11:13:02.594Z,1030.75
2023-05-08T11:14:02.550Z,1030.74
2023-05-08T11:15:02.564Z,1030.69
2023-05-08T11:16:02.614Z,1030.68
2023-05-08T11:17:02.554Z,1030.68
2023-05-08T11:18:02.615Z,1030.68
2023-05-08T11:19:02.564Z,1030.68
2023-05-08T11:20:02.567Z,1030.67
2023-05-08T11:21:02.589Z,1030.68
2023-05-08T11:22:02.563Z,1030.66
2023-05-08T11:23:02.575Z,1030.69
2023-05-08T11:24:02.579Z,1030.61
2023-05-08T11:25:02.587Z,1030.67
2023-05-08T11:26:02.599Z,1030.65
2023-05-08T11:27:02.572Z,1030.63
2023-05-08T11:28:02.606Z,1030.68
2023-05-08T11:29:02.582Z,1030.68
2023-05-08T11:30:02.583Z,1030.67
2023-05-08T11:31:02.609Z,1030.67
2023-05-08T11:32:02.653Z,1030.70
2023-05-08T11:33:02.656Z,1030.66
2023-05-08T11:34:02.609Z,1030.66
2023-05-08T11:35:02.597Z,1030.62
2023-05-08T11:36:02.605Z,1030.66
2023-05-08T11:37:02.607Z,1030.66
2023-05-08T11:38:02.610Z,1030.65
2023-05-08T11:39:02.619Z,1030.72
2023-05-08T11:40:02.612Z,1030.62
2023-05-08T11:41:02.618Z,1030.66
2023-05-08T11:42:02.615Z,1030.69
2023-05-08T11:43:02.620Z,1030.65
2023-05-08T11:44:02.669Z,1030.61
2023-05-08T11:45:02.626Z,1030.63
2023-05-08T11:46:02.629Z,1030.55
2023-05-08T11:47:02.685Z,1030.60
2023-05-08T11:48:02.663Z,1030.60
2023-05-08T11:49:02.645Z,1030.65
2023-05-08T11:50:02.656Z,1030.68
2023-05-08T11:51:02.674Z,1030.67
2023-05-08T11:52:02.667Z,1030.73
2023-05-08T11:53:02.647Z,1030.67
2023-05-08T11:54:02.667Z,1030.65
2023-05-08T11:55:02.652Z,1030.61
2023-05-08T11:56:02.662Z,1030.63
2023-05-08T11:57:02.670Z,1030.63
2023-05-08T11:58:02.662Z,1030.61
2023-05-08T11:59:02.665Z,1030.59
2023-05-08T12:00:02.715Z,1030.64
2023-05-08T12:01:02.722Z,1030.56
2023-05-08T12:02:08.692Z,1030.57
2023-05-08T12:03:02.918Z,1030.58
2023-05-08T12:04:02.909Z,1030.61
2023-05-08T12:05:02.774Z,1030.60